sensor_id;sensor_type;location;lat;lon;timestamp;pressure;altitude;pressure_sealevel;temperature;humidity
45763;BME280;37512;52.408;13.356;2023-08-06T00:03:27;100290.09;;;17.39;100.00
45763;BME280;37512;52.408;13.356;2023-08-06T00:07:29;100284.63;;;17.28;100.00
45763;BME280;37512;52.408;13.356;2023-08-06T00:11:30;100285.19;;;17.16;100.00
45763;BME280;37512;52.408;13.356;2023-08-06T00:15:32;100282.28;;;17.23;100.00
45763;BME280;37512;52.408;13.356;2023-08-06T00:19:33;100277.28;;;17.07;100.00
45763;BME280;37512;52.408;13.356;2023-08-06T00:23:35;100274.88;;;17.09;100.00
45763;BME280;37512;52.408;13.356;2023-08-06T00:27:36;100270.00;;;17.13;100.00
45763;BME280;37512;52.408;13.356;2023-08-06T00:31:39;100270.31;;;17.19;100.00
45763;BME280;37512;52.408;13.356;2023-08-06T00:35:41;100267.94;;;17.17;100.00
45763;BME280;37512;52.408;13.356;2023-08-06T00:39:43;100268.88;;;17.07;100.00
45763;BME280;37512;52.408;13.356;2023-08-06T00:43:45;100265.81;;;16.94;100.00
45763;BME280;37512;52.408;13.356;2023-08-06T00:47:47;100271.22;;;17.12;100.00
45763;BME280;37512;52.408;13.356;2023-08-06T00:51:49;100264.84;;;17.08;100.00
45763;BME280;37512;52.408;13.356;2023-08-06T00:55:51;100262.91;;;17.05;100.00
45763;BME280;37512;52.408;13.356;2023-08-06T00:59:54;100253.72;;;17.01;100.00
45763;BME280;37512;52.408;13.356;2023-08-06T01:03:56;100253.78;;;16.97;100.00
45763;BME280;37512;52.408;13.356;2023-08-06T01:08:19;100257.69;;;16.69;100.00
45763;BME280;37512;52.408;13.356;2023-08-06T01:12:45;100252.06;;;16.72;100.00
45763;BME280;37512;52.408;13.356;2023-08-06T01:16:52;100246.47;;;16.69;100.00
45763;BME280;37512;52.408;13.356;2023-08-06T01:20:54;100247.72;;;16.68;100.00
45763;BME280;37512;52.408;13.356;2023-08-06T01:24:56;100235.63;;;16.75;100.00
45763;BME280;37512;52.408;13.356;2023-08-06T01:33:21;100226.25;;;16.54;100.00
45763;BME280;37512;52.408;13.356;2023-08-06T01:37:23;100218.53;;;16.65;100.00
45763;BME280;37512;52.408;13.356;2023-08-06T01:41:25;100218.19;;;16.60;100.00
45763;BME280;37512;52.408;13.356;2023-08-06T01:45:27;100205.88;;;16.54;100.00
45763;BME280;37512;52.408;13.356;2023-08-06T01:49:28;100215.00;;;16.58;100.00
45763;BME280;37512;52.408;13.356;2023-08-06T01:53:30;100206.38;;;16.41;100.00
45763;BME280;37512;52.408;13.356;2023-08-06T01:57:32;100206.34;;;16.45;100.00
45763;BME280;37512;52.408;13.356;2023-08-06T02:01:34;100203.34;;;16.63;100.00
45763;BME280;37512;52.408;13.356;2023-08-06T02:05:36;100197.81;;;16.56;100.00
45763;BME280;37512;52.408;13.356;2023-08-06T02:09:37;100201.34;;;16.63;100.00
45763;BME280;37512;52.408;13.356;2023-08-06T02:13:39;100196.19;;;16.24;100.00
45763;BME280;37512;52.408;13.356;2023-08-06T02:17:40;100199.22;;;16.40;100.00
45763;BME280;37512;52.408;13.356;2023-08-06T02:21:42;100197.47;;;16.54;100.00
45763;BME280;37512;52.408;13.356;2023-08-06T02:25:43;100191.53;;;16.44;100.00
45763;BME280;37512;52.408;13.356;2023-08-06T02:29:45;100194.09;;;16.31;100.00
45763;BME280;37512;52.408;13.356;2023-08-06T02:33:46;100186.88;;;16.34;100.00
45763;BME280;37512;52.408;13.356;2023-08-06T02:37:48;100177.63;;;16.37;100.00
45763;BME280;37512;52.408;13.356;2023-08-06T02:41:49;100163.47;;;16.51;100.00
45763;BME280;37512;52.408;13.356;2023-08-06T02:45:52;100157.91;;;16.14;100.00
45763;BME280;37512;52.408;13.356;2023-08-06T02:49:53;100162.16;;;16.25;100.00
45763;BME280;37512;52.408;13.356;2023-08-06T02:53:55;100155.78;;;16.25;100.00
45763;BME280;37512;52.408;13.356;2023-08-06T02:57:57;100156.38;;;16.05;100.00
45763;BME280;37512;52.408;13.356;2023-08-06T03:01:58;100159.47;;;16.15;100.00
45763;BME280;37512;52.408;13.356;2023-08-06T03:06:00;100160.28;;;16.15;100.00
45763;BME280;37512;52.408;13.356;2023-08-06T03:10:03;100159.94;;;16.09;100.00
45763;BME280;37512;52.408;13.356;2023-08-06T03:14:05;100152.28;;;16.14;100.00
45763;BME280;37512;52.408;13.356;2023-08-06T03:18:06;100151.38;;;15.86;100.00
45763;BME280;37512;52.408;13.356;2023-08-06T03:22:08;100140.16;;;15.89;100.00
45763;BME280;37512;52.408;13.356;2023-08-06T03:26:11;100142.22;;;15.82;100.00
45763;BME280;37512;52.408;13.356;2023-08-06T03:30:13;100128.63;;;15.84;100.00
45763;BME280;37512;52.408;13.356;2023-08-06T03:34:14;100132.66;;;15.79;100.00
45763;BME280;37512;52.408;13.356;2023-08-06T03:38:16;100124.59;;;15.85;100.00
45763;BME280;37512;52.408;13.356;2023-08-06T03:42:18;100112.41;;;16.06;100.00
45763;BME280;37512;52.408;13.356;2023-08-06T03:46:19;100102.75;;;16.10;100.00
45763;BME280;37512;52.408;13.356;2023-08-06T03:50:21;100109.56;;;15.68;100.00
45763;BME280;37512;52.408;13.356;2023-08-06T03:54:22;100105.06;;;15.81;100.00
45763;BME280;37512;52.408;13.356;2023-08-06T03:58:24;100099.81;;;15.87;100.00
45763;BME280;37512;52.408;13.356;2023-08-06T04:02:25;100100.94;;;15.93;100.00
45763;BME280;37512;52.408;13.356;2023-08-06T04:06:27;100092.56;;;15.89;100.00
45763;BME280;37512;52.408;13.356;2023-08-06T04:10:28;100092.38;;;16.07;100.00
45763;BME280;37512;52.408;13.356;2023-08-06T04:14:30;100088.94;;;16.27;100.00
45763;BME280;37512;52.408;13.356;2023-08-06T04:18:31;100080.66;;;16.20;100.00
45763;BME280;37512;52.408;13.356;2023-08-06T04:22:33;100075.88;;;16.17;100.00
45763;BME280;37512;52.408;13.356;2023-08-06T04:26:35;100066.66;;;16.20;100.00
45763;BME280;37512;52.408;13.356;2023-08-06T04:30:37;100071.53;;;16.12;100.00
45763;BME280;37512;52.408;13.356;2023-08-06T04:34:39;100058.47;;;16.02;100.00
45763;BME280;37512;52.408;13.356;2023-08-06T04:38:40;100050.75;;;16.09;100.00
45763;BME280;37512;52.408;13.356;2023-08-06T04:42:46;100046.28;;;16.16;100.00
45763;BME280;37512;52.408;13.356;2023-08-06T04:46:47;100048.75;;;16.10;100.00
45763;BME280;37512;52.408;13.356;2023-08-06T04:50:50;100037.06;;;16.19;100.00
45763;BME280;37512;52.408;13.356;2023-08-06T04:54:52;100026.94;;;16.28;100.00
45763;BME280;37512;52.408;13.356;2023-08-06T04:58:53;100033.69;;;16.31;100.00
45763;BME280;37512;52.408;13.356;2023-08-06T05:02:55;100027.56;;;16.40;100.00
45763;BME280;37512;52.408;13.356;2023-08-06T05:06:56;100024.66;;;16.20;100.00
45763;BME280;37512;52.408;13.356;2023-08-06T05:10:58;100025.72;;;16.29;100.00
45763;BME280;37512;52.408;13.356;2023-08-06T05:15:00;100024.13;;;16.28;100.00
45763;BME280;37512;52.408;13.356;2023-08-06T05:19:01;100024.63;;;15.89;100.00
45763;BME280;37512;52.408;13.356;2023-08-06T05:23:03;100016.25;;;16.20;100.00
45763;BME280;37512;52.408;13.356;2023-08-06T05:27:05;100011.56;;;16.09;100.00
45763;BME280;37512;52.408;13.356;2023-08-06T05:31:06;100003.72;;;16.28;100.00
45763;BME280;37512;52.408;13.356;2023-08-06T05:35:08;100006.09;;;15.64;100.00
45763;BME280;37512;52.408;13.356;2023-08-06T05:39:10;100006.66;;;15.86;100.00
45763;BME280;37512;52.408;13.356;2023-08-06T05:43:11;100002.38;;;16.09;100.00
45763;BME280;37512;52.408;13.356;2023-08-06T05:47:13;99998.75;;;16.12;100.00
45763;BME280;37512;52.408;13.356;2023-08-06T05:51:14;99997.44;;;15.89;100.00
45763;BME280;37512;52.408;13.356;2023-08-06T05:55:18;100000.94;;;15.63;100.00
45763;BME280;37512;52.408;13.356;2023-08-06T05:59:19;99990.81;;;16.07;100.00
45763;BME280;37512;52.408;13.356;2023-08-06T06:03:21;99990.53;;;16.28;100.00
45763;BME280;37512;52.408;13.356;2023-08-06T06:07:23;99991.84;;;16.20;100.00
45763;BME280;37512;52.408;13.356;2023-08-06T06:11:24;99983.38;;;15.97;100.00
45763;BME280;37512;52.408;13.356;2023-08-06T06:15:26;99988.06;;;15.73;100.00
45763;BME280;37512;52.408;13.356;2023-08-06T06:19:28;99985.66;;;15.71;100.00
45763;BME280;37512;52.408;13.356;2023-08-06T06:23:32;99975.19;;;16.09;100.00
45763;BME280;37512;52.408;13.356;2023-08-06T06:27:33;99977.03;;;15.93;100.00
45763;BME280;37512;52.408;13.356;2023-08-06T06:31:35;99980.31;;;16.15;100.00
45763;BME280;37512;52.408;13.356;2023-08-06T06:35:36;99975.34;;;16.26;100.00
45763;BME280;37512;52.408;13.356;2023-08-06T06:39:38;99969.94;;;16.42;100.00
45763;BME280;37512;52.408;13.356;2023-08-06T06:43:40;99970.84;;;16.05;100.00
45763;BME280;37512;52.408;13.356;2023-08-06T06:47:41;99983.72;;;16.57;100.00
45763;BME280;37512;52.408;13.356;2023-08-06T06:51:43;99977.22;;;16.05;100.00
45763;BME280;37512;52.408;13.356;2023-08-06T06:55:45;99980.16;;;16.52;100.00
45763;BME280;37512;52.408;13.356;2023-08-06T06:59:46;99978.41;;;16.35;100.00
45763;BME280;37512;52.408;13.356;2023-08-06T07:03:48;99974.56;;;16.80;100.00
45763;BME280;37512;52.408;13.356;2023-08-06T07:07:50;99972.50;;;16.84;100.00
45763;BME280;37512;52.408;13.356;2023-08-06T07:11:53;99977.97;;;16.91;100.00
45763;BME280;37512;52.408;13.356;2023-08-06T07:15:55;99985.06;;;16.72;100.00
45763;BME280;37512;52.408;13.356;2023-08-06T07:19:57;99985.13;;;16.68;100.00
45763;BME280;37512;52.408;13.356;2023-08-06T07:23:59;99982.56;;;16.81;100.00
45763;BME280;37512;52.408;13.356;2023-08-06T07:28:01;99984.72;;;16.43;100.00
45763;BME280;37512;52.408;13.356;2023-08-06T07:32:03;99976.19;;;16.77;100.00
45763;BME280;37512;52.408;13.356;2023-08-06T07:36:10;99975.75;;;16.79;100.00
45763;BME280;37512;52.408;13.356;2023-08-06T07:40:12;99969.75;;;16.80;100.00
45763;BME280;37512;52.408;13.356;2023-08-06T07:44:14;99964.75;;;16.91;100.00
45763;BME280;37512;52.408;13.356;2023-08-06T07:48:16;99963.56;;;17.12;100.00
45763;BME280;37512;52.408;13.356;2023-08-06T07:52:17;99969.41;;;17.22;100.00
45763;BME280;37512;52.408;13.356;2023-08-06T07:56:19;99970.22;;;16.99;100.00
45763;BME280;37512;52.408;13.356;2023-08-06T08:00:21;99972.03;;;17.32;100.00
45763;BME280;37512;52.408;13.356;2023-08-06T08:04:23;99972.63;;;17.44;100.00
45763;BME280;37512;52.408;13.356;2023-08-06T08:08:25;99965.50;;;17.59;100.00
45763;BME280;37512;52.408;13.356;2023-08-06T08:12:27;99964.63;;;17.62;100.00
45763;BME280;37512;52.408;13.356;2023-08-06T08:16:28;99961.53;;;17.76;100.00
45763;BME280;37512;52.408;13.356;2023-08-06T08:20:30;99953.72;;;16.81;100.00
45763;BME280;37512;52.408;13.356;2023-08-06T08:24:36;99957.28;;;16.58;100.00
45763;BME280;37512;52.408;13.356;2023-08-06T08:28:37;99947.97;;;16.64;100.00
45763;BME280;37512;52.408;13.356;2023-08-06T08:32:39;99940.50;;;17.05;100.00
45763;BME280;37512;52.408;13.356;2023-08-06T08:36:41;99932.41;;;17.30;100.00
45763;BME280;37512;52.408;13.356;2023-08-06T08:40:46;99933.91;;;16.91;100.00
45763;BME280;37512;52.408;13.356;2023-08-06T08:44:50;99932.03;;;17.08;100.00
45763;BME280;37512;52.408;13.356;2023-08-06T08:48:54;99924.91;;;16.80;100.00
45763;BME280;37512;52.408;13.356;2023-08-06T08:52:57;99919.66;;;17.26;100.00
45763;BME280;37512;52.408;13.356;2023-08-06T08:56:58;99910.47;;;17.25;100.00
45763;BME280;37512;52.408;13.356;2023-08-06T09:01:00;99901.41;;;17.18;100.00
45763;BME280;37512;52.408;13.356;2023-08-06T09:05:04;99900.25;;;17.55;100.00
45763;BME280;37512;52.408;13.356;2023-08-06T09:09:09;99893.56;;;18.05;100.00
45763;BME280;37512;52.408;13.356;2023-08-06T09:13:13;99888.31;;;17.51;100.00
45763;BME280;37512;52.408;13.356;2023-08-06T09:17:16;99894.38;;;17.29;100.00
45763;BME280;37512;52.408;13.356;2023-08-06T09:21:21;99888.81;;;17.66;100.00
45763;BME280;37512;52.408;13.356;2023-08-06T09:25:23;99888.28;;;17.91;100.00
45763;BME280;37512;52.408;13.356;2023-08-06T09:29:31;99886.81;;;17.26;100.00
45763;BME280;37512;52.408;13.356;2023-08-06T09:33:36;99880.34;;;17.29;100.00
45763;BME280;37512;52.408;13.356;2023-08-06T09:37:37;99868.00;;;17.27;100.00
45763;BME280;37512;52.408;13.356;2023-08-06T09:41:39;99863.44;;;17.53;100.00
45763;BME280;37512;52.408;13.356;2023-08-06T09:45:41;99862.03;;;17.81;100.00
45763;BME280;37512;52.408;13.356;2023-08-06T09:49:43;99861.91;;;17.88;100.00
45763;BME280;37512;52.408;13.356;2023-08-06T09:53:47;99851.09;;;18.03;100.00
45763;BME280;37512;52.408;13.356;2023-08-06T09:57:50;99844.88;;;18.45;100.00
45763;BME280;37512;52.408;13.356;2023-08-06T10:01:54;99842.88;;;18.12;100.00
45763;BME280;37512;52.408;13.356;2023-08-06T10:05:57;99839.53;;;18.17;100.00
45763;BME280;37512;52.408;13.356;2023-08-06T10:10:00;99843.38;;;17.54;100.00
45763;BME280;37512;52.408;13.356;2023-08-06T10:14:12;99838.66;;;17.31;100.00
45763;BME280;37512;52.408;13.356;2023-08-06T10:18:15;99837.66;;;17.58;100.00
45763;BME280;37512;52.408;13.356;2023-08-06T10:22:22;99828.25;;;17.48;100.00
45763;BME280;37512;52.408;13.356;2023-08-06T10:26:28;99821.34;;;18.22;100.00
45763;BME280;37512;52.408;13.356;2023-08-06T10:30:32;99823.28;;;17.92;100.00
45763;BME280;37512;52.408;13.356;2023-08-06T10:34:56;99823.38;;;18.05;100.00
45763;BME280;37512;52.408;13.356;2023-08-06T10:38:58;99825.31;;;17.35;100.00
45763;BME280;37512;52.408;13.356;2023-08-06T10:43:01;99826.72;;;17.64;100.00
45763;BME280;37512;52.408;13.356;2023-08-06T10:47:25;99810.41;;;17.95;100.00
45763;BME280;37512;52.408;13.356;2023-08-06T10:51:27;99817.75;;;18.22;100.00
45763;BME280;37512;52.408;13.356;2023-08-06T10:55:29;99812.69;;;17.84;100.00
45763;BME280;37512;52.408;13.356;2023-08-06T10:59:31;99805.94;;;17.61;100.00
45763;BME280;37512;52.408;13.356;2023-08-06T11:03:34;99809.72;;;17.71;100.00
45763;BME280;37512;52.408;13.356;2023-08-06T11:07:36;99794.16;;;17.86;100.00
45763;BME280;37512;52.408;13.356;2023-08-06T11:11:38;99802.03;;;17.75;100.00
45763;BME280;37512;52.408;13.356;2023-08-06T11:15:40;99793.31;;;17.69;100.00
45763;BME280;37512;52.408;13.356;2023-08-06T11:19:41;99789.66;;;17.72;100.00
45763;BME280;37512;52.408;13.356;2023-08-06T11:23:43;99784.63;;;18.00;100.00
45763;BME280;37512;52.408;13.356;2023-08-06T11:27:44;99770.00;;;18.38;100.00
45763;BME280;37512;52.408;13.356;2023-08-06T11:31:46;99769.38;;;17.65;100.00
45763;BME280;37512;52.408;13.356;2023-08-06T11:35:48;99769.19;;;17.72;100.00
45763;BME280;37512;52.408;13.356;2023-08-06T11:39:50;99754.94;;;18.32;100.00
45763;BME280;37512;52.408;13.356;2023-08-06T11:43:52;99753.22;;;18.51;100.00
45763;BME280;37512;52.408;13.356;2023-08-06T11:47:53;99750.91;;;18.00;100.00
45763;BME280;37512;52.408;13.356;2023-08-06T11:51:55;99756.19;;;17.82;100.00
45763;BME280;37512;52.408;13.356;2023-08-06T11:55:57;99745.78;;;17.78;100.00
45763;BME280;37512;52.408;13.356;2023-08-06T12:00:03;99749.06;;;17.77;100.00
45763;BME280;37512;52.408;13.356;2023-08-06T12:04:05;99744.59;;;17.96;100.00
45763;BME280;37512;52.408;13.356;2023-08-06T12:08:08;99743.56;;;18.35;100.00
45763;BME280;37512;52.408;13.356;2023-08-06T12:12:10;99740.91;;;18.45;100.00
45763;BME280;37512;52.408;13.356;2023-08-06T12:16:11;99750.38;;;18.05;100.00
45763;BME280;37512;52.408;13.356;2023-08-06T12:20:15;99743.03;;;17.95;100.00
45763;BME280;37512;52.408;13.356;2023-08-06T12:24:16;99744.94;;;18.14;100.00
45763;BME280;37512;52.408;13.356;2023-08-06T12:28:18;99756.41;;;17.54;100.00
45763;BME280;37512;52.408;13.356;2023-08-06T12:32:22;99755.22;;;16.99;100.00
45763;BME280;37512;52.408;13.356;2023-08-06T12:36:24;99764.25;;;17.07;100.00
45763;BME280;37512;52.408;13.356;2023-08-06T12:40:25;99761.44;;;17.07;100.00
45763;BME280;37512;52.408;13.356;2023-08-06T12:44:38;99754.59;;;17.28;100.00
45763;BME280;37512;52.408;13.356;2023-08-06T12:48:39;99750.59;;;17.09;100.00
45763;BME280;37512;52.408;13.356;2023-08-06T12:52:41;99750.66;;;16.22;100.00
45763;BME280;37512;52.408;13.356;2023-08-06T12:56:42;99756.72;;;16.17;100.00
45763;BME280;37512;52.408;13.356;2023-08-06T13:00:44;99757.88;;;16.19;100.00
45763;BME280;37512;52.408;13.356;2023-08-06T13:04:46;99749.47;;;16.43;100.00
45763;BME280;37512;52.408;13.356;2023-08-06T13:08:47;99750.13;;;16.50;100.00
45763;BME280;37512;52.408;13.356;2023-08-06T13:12:49;99747.25;;;16.10;100.00
45763;BME280;37512;52.408;13.356;2023-08-06T13:16:51;99749.56;;;15.92;100.00
45763;BME280;37512;52.408;13.356;2023-08-06T13:20:53;99751.03;;;16.00;100.00
45763;BME280;37512;52.408;13.356;2023-08-06T13:24:55;99747.63;;;16.13;100.00
45763;BME280;37512;52.408;13.356;2023-08-06T13:28:57;99752.66;;;16.45;100.00
45763;BME280;37512;52.408;13.356;2023-08-06T13:32:59;99751.91;;;16.41;100.00
45763;BME280;37512;52.408;13.356;2023-08-06T13:37:01;99742.50;;;16.31;100.00
45763;BME280;37512;52.408;13.356;2023-08-06T13:41:02;99732.28;;;16.21;100.00
45763;BME280;37512;52.408;13.356;2023-08-06T13:45:05;99738.41;;;16.36;100.00
45763;BME280;37512;52.408;13.356;2023-08-06T13:49:07;99733.78;;;16.49;100.00
45763;BME280;37512;52.408;13.356;2023-08-06T13:53:08;99725.06;;;16.43;100.00
45763;BME280;37512;52.408;13.356;2023-08-06T13:57:10;99733.81;;;16.45;100.00
45763;BME280;37512;52.408;13.356;2023-08-06T14:01:12;99726.88;;;16.54;100.00
45763;BME280;37512;52.408;13.356;2023-08-06T14:05:15;99739.34;;;16.69;100.00
45763;BME280;37512;52.408;13.356;2023-08-06T14:09:16;99736.47;;;16.52;100.00
45763;BME280;37512;52.408;13.356;2023-08-06T14:13:21;99734.09;;;16.07;100.00
45763;BME280;37512;52.408;13.356;2023-08-06T14:17:23;99727.78;;;16.27;100.00
45763;BME280;37512;52.408;13.356;2023-08-06T14:21:25;99728.44;;;16.55;100.00
45763;BME280;37512;52.408;13.356;2023-08-06T14:25:26;99724.94;;;16.70;100.00
45763;BME280;37512;52.408;13.356;2023-08-06T14:29:28;99727.41;;;16.88;100.00
45763;BME280;37512;52.408;13.356;2023-08-06T14:33:29;99721.91;;;17.01;100.00
45763;BME280;37512;52.408;13.356;2023-08-06T14:37:31;99721.84;;;17.05;100.00
45763;BME280;37512;52.408;13.356;2023-08-06T14:41:33;99729.47;;;17.04;100.00
45763;BME280;37512;52.408;13.356;2023-08-06T14:45:38;99751.13;;;16.60;100.00
45763;BME280;37512;52.408;13.356;2023-08-06T14:49:40;99754.63;;;16.44;100.00
45763;BME280;37512;52.408;13.356;2023-08-06T14:53:41;99738.94;;;17.10;100.00
45763;BME280;37512;52.408;13.356;2023-08-06T14:57:43;99726.13;;;17.29;100.00
45763;BME280;37512;52.408;13.356;2023-08-06T15:01:45;99720.50;;;17.29;100.00
45763;BME280;37512;52.408;13.356;2023-08-06T15:05:47;99715.81;;;17.43;100.00
45763;BME280;37512;52.408;13.356;2023-08-06T15:09:49;99719.72;;;17.29;100.00
45763;BME280;37512;52.408;13.356;2023-08-06T15:14:14;99719.75;;;17.45;100.00
45763;BME280;37512;52.408;13.356;2023-08-06T15:18:16;99721.75;;;17.45;100.00
45763;BME280;37512;52.408;13.356;2023-08-06T15:22:18;99715.44;;;17.41;100.00
45763;BME280;37512;52.408;13.356;2023-08-06T15:26:19;99729.72;;;17.63;100.00
45763;BME280;37512;52.408;13.356;2023-08-06T15:30:22;99730.25;;;17.58;100.00
45763;BME280;37512;52.408;13.356;2023-08-06T15:34:23;99745.75;;;17.29;100.00
45763;BME280;37512;52.408;13.356;2023-08-06T15:38:25;99749.38;;;16.90;100.00
45763;BME280;37512;52.408;13.356;2023-08-06T15:42:27;99749.09;;;17.41;100.00
45763;BME280;37512;52.408;13.356;2023-08-06T15:46:28;99745.84;;;17.42;100.00
45763;BME280;37512;52.408;13.356;2023-08-06T15:50:30;99742.25;;;17.42;100.00
45763;BME280;37512;52.408;13.356;2023-08-06T15:54:32;99745.06;;;17.42;100.00
45763;BME280;37512;52.408;13.356;2023-08-06T15:58:33;99739.78;;;17.27;100.00
45763;BME280;37512;52.408;13.356;2023-08-06T16:02:37;99738.72;;;17.38;100.00
45763;BME280;37512;52.408;13.356;2023-08-06T16:06:39;99740.94;;;17.10;100.00
45763;BME280;37512;52.408;13.356;2023-08-06T16:10:40;99743.91;;;17.03;100.00
45763;BME280;37512;52.408;13.356;2023-08-06T16:14:46;99739.06;;;17.23;100.00
45763;BME280;37512;52.408;13.356;2023-08-06T16:18:48;99748.84;;;16.75;100.00
45763;BME280;37512;52.408;13.356;2023-08-06T16:22:49;99748.41;;;16.57;100.00
45763;BME280;37512;52.408;13.356;2023-08-06T16:26:51;99737.56;;;16.59;100.00
45763;BME280;37512;52.408;13.356;2023-08-06T16:30:53;99747.94;;;16.82;100.00
45763;BME280;37512;52.408;13.356;2023-08-06T16:34:55;99738.31;;;17.03;100.00
45763;BME280;37512;52.408;13.356;2023-08-06T16:38:57;99742.75;;;17.20;100.00
45763;BME280;37512;52.408;13.356;2023-08-06T16:42:59;99745.19;;;17.18;100.00
45763;BME280;37512;52.408;13.356;2023-08-06T16:47:00;99741.09;;;17.03;100.00
45763;BME280;37512;52.408;13.356;2023-08-06T16:51:03;99744.25;;;16.65;100.00
45763;BME280;37512;52.408;13.356;2023-08-06T16:55:05;99746.31;;;16.41;100.00
45763;BME280;37512;52.408;13.356;2023-08-06T16:59:07;99748.09;;;16.51;100.00
45763;BME280;37512;52.408;13.356;2023-08-06T17:03:08;99738.41;;;16.79;100.00
45763;BME280;37512;52.408;13.356;2023-08-06T17:07:10;99735.78;;;17.08;100.00
45763;BME280;37512;52.408;13.356;2023-08-06T17:11:11;99733.44;;;16.87;100.00
45763;BME280;37512;52.408;13.356;2023-08-06T17:15:13;99732.91;;;16.92;100.00
45763;BME280;37512;52.408;13.356;2023-08-06T17:19:15;99732.50;;;16.93;100.00
45763;BME280;37512;52.408;13.356;2023-08-06T17:23:19;99731.75;;;16.49;100.00
45763;BME280;37512;52.408;13.356;2023-08-06T17:27:20;99729.09;;;16.62;100.00
45763;BME280;37512;52.408;13.356;2023-08-06T17:31:22;99731.16;;;16.38;100.00
45763;BME280;37512;52.408;13.356;2023-08-06T17:35:23;99727.56;;;16.58;100.00
45763;BME280;37512;52.408;13.356;2023-08-06T17:39:25;99726.06;;;16.09;100.00
45763;BME280;37512;52.408;13.356;2023-08-06T17:43:26;99717.59;;;16.37;100.00
45763;BME280;37512;52.408;13.356;2023-08-06T17:47:28;99722.00;;;16.14;100.00
45763;BME280;37512;52.408;13.356;2023-08-06T17:51:37;99714.41;;;16.35;100.00
45763;BME280;37512;52.408;13.356;2023-08-06T17:55:39;99721.16;;;16.17;100.00
45763;BME280;37512;52.408;13.356;2023-08-06T17:59:40;99724.97;;;16.27;100.00
45763;BME280;37512;52.408;13.356;2023-08-06T18:03:43;99721.22;;;16.14;100.00
45763;BME280;37512;52.408;13.356;2023-08-06T18:07:47;99720.69;;;15.99;100.00
45763;BME280;37512;52.408;13.356;2023-08-06T18:11:48;99717.06;;;16.22;100.00
45763;BME280;37512;52.408;13.356;2023-08-06T18:15:50;99718.81;;;16.12;100.00
45763;BME280;37512;52.408;13.356;2023-08-06T18:19:56;99720.38;;;15.93;100.00
45763;BME280;37512;52.408;13.356;2023-08-06T18:23:59;99722.53;;;16.05;100.00
45763;BME280;37512;52.408;13.356;2023-08-06T18:28:00;99739.81;;;16.00;100.00
45763;BME280;37512;52.408;13.356;2023-08-06T18:32:02;99745.97;;;15.92;100.00
45763;BME280;37512;52.408;13.356;2023-08-06T18:36:05;99729.72;;;16.06;100.00
45763;BME280;37512;52.408;13.356;2023-08-06T18:40:10;99733.63;;;16.13;100.00
45763;BME280;37512;52.408;13.356;2023-08-06T18:44:12;99734.59;;;15.79;100.00
45763;BME280;37512;52.408;13.356;2023-08-06T18:48:14;99752.16;;;15.79;100.00
45763;BME280;37512;52.408;13.356;2023-08-06T18:52:17;99748.41;;;15.62;100.00
45763;BME280;37512;52.408;13.356;2023-08-06T18:56:18;99756.50;;;15.84;100.00
45763;BME280;37512;52.408;13.356;2023-08-06T19:00:20;99757.97;;;15.92;100.00
45763;BME280;37512;52.408;13.356;2023-08-06T19:04:22;99751.94;;;15.94;100.00
45763;BME280;37512;52.408;13.356;2023-08-06T19:08:25;99760.81;;;15.88;100.00
45763;BME280;37512;52.408;13.356;2023-08-06T19:12:27;99757.09;;;15.72;100.00
45763;BME280;37512;52.408;13.356;2023-08-06T19:16:29;99760.94;;;15.81;100.00
45763;BME280;37512;52.408;13.356;2023-08-06T19:20:31;99758.50;;;15.83;100.00
45763;BME280;37512;52.408;13.356;2023-08-06T19:24:32;99770.00;;;15.89;100.00
45763;BME280;37512;52.408;13.356;2023-08-06T19:28:34;99758.31;;;15.94;100.00
45763;BME280;37512;52.408;13.356;2023-08-06T19:32:35;99769.69;;;15.56;100.00
45763;BME280;37512;52.408;13.356;2023-08-06T19:36:37;99775.22;;;15.87;100.00
45763;BME280;37512;52.408;13.356;2023-08-06T19:40:39;99765.75;;;15.81;100.00
45763;BME280;37512;52.408;13.356;2023-08-06T19:44:40;99761.84;;;15.75;100.00
45763;BME280;37512;52.408;13.356;2023-08-06T19:48:42;99769.63;;;15.87;100.00
45763;BME280;37512;52.408;13.356;2023-08-06T19:52:44;99762.69;;;15.68;100.00
45763;BME280;37512;52.408;13.356;2023-08-06T19:56:47;99758.78;;;15.62;100.00
45763;BME280;37512;52.408;13.356;2023-08-06T20:00:48;99765.88;;;15.70;100.00
45763;BME280;37512;52.408;13.356;2023-08-06T20:04:50;99763.22;;;15.59;100.00
45763;BME280;37512;52.408;13.356;2023-08-06T20:08:55;99758.06;;;15.58;100.00
45763;BME280;37512;52.408;13.356;2023-08-06T20:12:57;99766.34;;;15.38;100.00
45763;BME280;37512;52.408;13.356;2023-08-06T20:16:58;99768.69;;;15.39;100.00
45763;BME280;37512;52.408;13.356;2023-08-06T20:21:00;99771.28;;;15.26;100.00
45763;BME280;37512;52.408;13.356;2023-08-06T20:25:02;99776.28;;;15.42;100.00
45763;BME280;37512;52.408;13.356;2023-08-06T20:29:03;99761.59;;;15.62;100.00
45763;BME280;37512;52.408;13.356;2023-08-06T20:33:07;99754.84;;;15.59;100.00
45763;BME280;37512;52.408;13.356;2023-08-06T20:37:08;99754.44;;;15.61;100.00
45763;BME280;37512;52.408;13.356;2023-08-06T20:41:10;99746.66;;;15.45;100.00
45763;BME280;37512;52.408;13.356;2023-08-06T20:45:12;99752.22;;;15.76;100.00
45763;BME280;37512;52.408;13.356;2023-08-06T20:49:13;99754.06;;;15.59;100.00
45763;BME280;37512;52.408;13.356;2023-08-06T20:53:15;99763.97;;;15.63;100.00